sensor_id;sensor_type;location;lat;lon;timestamp;pressure;altitude;pressure_sealevel;temperature;humidity
55010;BME280;40903;51.638;7.528;2023-06-22T00:01:49;101241.13;;;21.13;77.54
55010;BME280;40903;51.638;7.528;2023-06-22T00:04:14;101232.66;;;21.10;77.71
55010;BME280;40903;51.638;7.528;2023-06-22T00:06:40;101230.94;;;21.05;78.56
55010;BME280;40903;51.638;7.528;2023-06-22T00:09:05;101231.31;;;21.04;78.56
55010;BME280;40903;51.638;7.528;2023-06-22T00:11:33;101237.97;;;21.03;78.50
55010;BME280;40903;51.638;7.528;2023-06-22T00:13:59;101234.41;;;21.02;78.63
55010;BME280;40903;51.638;7.528;2023-06-22T00:16:24;101221.69;;;21.01;79.13
55010;BME280;40903;51.638;7.528;2023-06-22T00:18:50;101215.69;;;20.99;79.09
55010;BME280;40903;51.638;7.528;2023-06-22T00:21:15;101228.28;;;20.97;79.29
55010;BME280;40903;51.638;7.528;2023-06-22T00:23:41;101233.03;;;20.96;79.20
55010;BME280;40903;51.638;7.528;2023-06-22T00:26:06;101237.75;;;20.96;79.17
55010;BME280;40903;51.638;7.528;2023-06-22T00:28:32;101236.16;;;20.95;79.20
55010;BME280;40903;51.638;7.528;2023-06-22T00:30:57;101230.94;;;20.93;79.03
55010;BME280;40903;51.638;7.528;2023-06-22T00:33:23;101223.31;;;20.90;79.51
55010;BME280;40903;51.638;7.528;2023-06-22T00:35:48;101225.97;;;20.87;79.51
55010;BME280;40903;51.638;7.528;2023-06-22T00:38:18;101236.47;;;20.81;79.99
55010;BME280;40903;51.638;7.528;2023-06-22T00:40:43;101237.97;;;20.79;79.97
55010;BME280;40903;51.638;7.528;2023-06-22T00:43:09;101235.06;;;20.75;80.26
55010;BME280;40903;51.638;7.528;2023-06-22T00:45:34;101238.53;;;20.72;80.57
55010;BME280;40903;51.638;7.528;2023-06-22T00:48:00;101231.69;;;20.70;80.55
55010;BME280;40903;51.638;7.528;2023-06-22T00:50:28;101233.22;;;20.67;80.54
55010;BME280;40903;51.638;7.528;2023-06-22T00:53:00;101229.63;;;20.67;81.30
55010;BME280;40903;51.638;7.528;2023-06-22T00:55:26;101221.63;;;20.65;81.54
55010;BME280;40903;51.638;7.528;2023-06-22T00:57:52;101212.06;;;20.63;81.56
55010;BME280;40903;51.638;7.528;2023-06-22T01:00:25;101225.47;;;20.61;81.45
55010;BME280;40903;51.638;7.528;2023-06-22T01:02:52;101225.00;;;20.59;81.72
55010;BME280;40903;51.638;7.528;2023-06-22T01:05:19;101226.50;;;20.56;81.49
55010;BME280;40903;51.638;7.528;2023-06-22T01:10:43;101233.88;;;20.52;82.21
55010;BME280;40903;51.638;7.528;2023-06-22T01:13:30;101237.00;;;20.51;82.76
55010;BME280;40903;51.638;7.528;2023-06-22T01:16:25;101236.88;;;20.47;83.00
55010;BME280;40903;51.638;7.528;2023-06-22T01:18:54;101240.31;;;20.44;82.64
55010;BME280;40903;51.638;7.528;2023-06-22T01:21:22;101234.66;;;20.41;83.21
55010;BME280;40903;51.638;7.528;2023-06-22T01:23:56;101233.03;;;20.40;83.59
55010;BME280;40903;51.638;7.528;2023-06-22T01:29:16;101232.94;;;20.36;84.28
55010;BME280;40903;51.638;7.528;2023-06-22T01:31:44;101230.03;;;20.33;84.44
55010;BME280;40903;51.638;7.528;2023-06-22T01:34:11;101220.44;;;20.30;84.70
55010;BME280;40903;51.638;7.528;2023-06-22T01:36:38;101217.22;;;20.28;84.91
55010;BME280;40903;51.638;7.528;2023-06-22T01:39:05;101222.63;;;20.25;84.97
55010;BME280;40903;51.638;7.528;2023-06-22T01:41:35;101209.13;;;20.23;84.82
55010;BME280;40903;51.638;7.528;2023-06-22T01:44:03;101207.50;;;20.22;85.49
55010;BME280;40903;51.638;7.528;2023-06-22T01:46:30;101206.22;;;20.20;85.72
55010;BME280;40903;51.638;7.528;2023-06-22T01:48:56;101201.84;;;20.19;86.26
55010;BME280;40903;51.638;7.528;2023-06-22T01:51:22;101206.09;;;20.16;86.12
55010;BME280;40903;51.638;7.528;2023-06-22T01:53:47;101208.41;;;20.14;86.35
55010;BME280;40903;51.638;7.528;2023-06-22T01:56:16;101210.69;;;20.12;86.69
55010;BME280;40903;51.638;7.528;2023-06-22T01:59:09;101203.88;;;20.10;87.27
55010;BME280;40903;51.638;7.528;2023-06-22T02:01:37;101208.16;;;20.07;87.21
55010;BME280;40903;51.638;7.528;2023-06-22T02:04:13;101209.63;;;20.05;86.77
55010;BME280;40903;51.638;7.528;2023-06-22T02:06:45;101209.19;;;20.03;86.65
55010;BME280;40903;51.638;7.528;2023-06-22T02:09:16;101212.59;;;20.00;86.79
55010;BME280;40903;51.638;7.528;2023-06-22T02:11:45;101215.38;;;20.00;87.16
55010;BME280;40903;51.638;7.528;2023-06-22T02:14:12;101216.84;;;19.97;88.07
55010;BME280;40903;51.638;7.528;2023-06-22T02:16:38;101217.19;;;19.96;88.73
55010;BME280;40903;51.638;7.528;2023-06-22T02:19:04;101215.56;;;19.95;89.64
55010;BME280;40903;51.638;7.528;2023-06-22T02:21:31;101216.72;;;19.94;89.48
55010;BME280;40903;51.638;7.528;2023-06-22T02:23:57;101215.47;;;19.92;89.51
55010;BME280;40903;51.638;7.528;2023-06-22T02:26:24;101210.56;;;19.88;89.75
55010;BME280;40903;51.638;7.528;2023-06-22T02:28:49;101205.72;;;19.86;89.57
55010;BME280;40903;51.638;7.528;2023-06-22T02:31:15;101205.25;;;19.84;90.10
55010;BME280;40903;51.638;7.528;2023-06-22T02:33:41;101204.78;;;19.82;90.48
55010;BME280;40903;51.638;7.528;2023-06-22T02:36:07;101205.81;;;19.77;91.25
55010;BME280;40903;51.638;7.528;2023-06-22T02:38:34;101208.44;;;19.74;91.66
55010;BME280;40903;51.638;7.528;2023-06-22T02:41:01;101208.78;;;19.72;91.97
55010;BME280;40903;51.638;7.528;2023-06-22T02:43:27;101202.44;;;19.72;92.36
55010;BME280;40903;51.638;7.528;2023-06-22T02:45:52;101193.66;;;19.70;91.95
55010;BME280;40903;51.638;7.528;2023-06-22T02:48:18;101196.78;;;19.68;91.98
55010;BME280;40903;51.638;7.528;2023-06-22T02:50:43;101190.28;;;19.64;92.07
55010;BME280;40903;51.638;7.528;2023-06-22T02:53:08;101194.56;;;19.62;91.95
55010;BME280;40903;51.638;7.528;2023-06-22T02:55:34;101189.69;;;19.59;92.34
55010;BME280;40903;51.638;7.528;2023-06-22T02:57:59;101189.91;;;19.54;92.71
55010;BME280;40903;51.638;7.528;2023-06-22T03:00:24;101187.47;;;19.52;92.52
55010;BME280;40903;51.638;7.528;2023-06-22T03:02:55;101189.28;;;19.48;92.40
55010;BME280;40903;51.638;7.528;2023-06-22T03:05:20;101195.19;;;19.47;92.70
55010;BME280;40903;51.638;7.528;2023-06-22T03:07:46;101192.75;;;19.45;92.71
55010;BME280;40903;51.638;7.528;2023-06-22T03:10:13;101191.44;;;19.43;92.84
55010;BME280;40903;51.638;7.528;2023-06-22T03:12:39;101195.38;;;19.42;92.87
55010;BME280;40903;51.638;7.528;2023-06-22T03:15:06;101200.09;;;19.41;92.64
55010;BME280;40903;51.638;7.528;2023-06-22T03:17:34;101190.97;;;19.41;92.50
55010;BME280;40903;51.638;7.528;2023-06-22T03:20:00;101184.31;;;19.42;93.49
55010;BME280;40903;51.638;7.528;2023-06-22T03:22:26;101184.31;;;19.42;93.92
55010;BME280;40903;51.638;7.528;2023-06-22T03:24:51;101181.53;;;19.42;93.78
55010;BME280;40903;51.638;7.528;2023-06-22T03:27:16;101189.16;;;19.45;94.18
55010;BME280;40903;51.638;7.528;2023-06-22T03:29:43;101177.44;;;19.48;94.24
55010;BME280;40903;51.638;7.528;2023-06-22T03:32:09;101176.28;;;19.49;94.71
55010;BME280;40903;51.638;7.528;2023-06-22T03:34:35;101180.66;;;19.50;94.83
55010;BME280;40903;51.638;7.528;2023-06-22T03:37:03;101173.53;;;19.49;94.91
55010;BME280;40903;51.638;7.528;2023-06-22T03:39:29;101182.50;;;19.46;94.89
55010;BME280;40903;51.638;7.528;2023-06-22T03:41:54;101170.94;;;19.44;94.75
55010;BME280;40903;51.638;7.528;2023-06-22T03:44:20;101182.34;;;19.42;94.95
55010;BME280;40903;51.638;7.528;2023-06-22T03:46:45;101175.22;;;19.41;94.95
55010;BME280;40903;51.638;7.528;2023-06-22T03:49:11;101182.69;;;19.41;94.71
55010;BME280;40903;51.638;7.528;2023-06-22T03:51:36;101174.38;;;19.41;94.55
55010;BME280;40903;51.638;7.528;2023-06-22T03:54:02;101178.78;;;19.42;94.20
55010;BME280;40903;51.638;7.528;2023-06-22T03:56:27;101185.91;;;19.43;93.83
55010;BME280;40903;51.638;7.528;2023-06-22T03:58:52;101189.50;;;19.43;93.85
55010;BME280;40903;51.638;7.528;2023-06-22T04:01:18;101186.75;;;19.43;93.95
55010;BME280;40903;51.638;7.528;2023-06-22T04:03:44;101188.03;;;19.46;93.97
55010;BME280;40903;51.638;7.528;2023-06-22T04:06:09;101176.97;;;19.46;94.33
55010;BME280;40903;51.638;7.528;2023-06-22T04:08:35;101177.44;;;19.48;94.54
55010;BME280;40903;51.638;7.528;2023-06-22T04:11:00;101165.00;;;19.54;94.11
55010;BME280;40903;51.638;7.528;2023-06-22T04:13:25;101162.50;;;19.61;94.46
55010;BME280;40903;51.638;7.528;2023-06-22T04:15:51;101160.31;;;19.66;94.40
55010;BME280;40903;51.638;7.528;2023-06-22T04:18:16;101153.78;;;19.71;94.06
55010;BME280;40903;51.638;7.528;2023-06-22T04:20:41;101157.59;;;19.78;94.06
55010;BME280;40903;51.638;7.528;2023-06-22T04:23:07;101155.66;;;19.79;93.95
55010;BME280;40903;51.638;7.528;2023-06-22T04:25:32;101155.44;;;19.84;94.09
55010;BME280;40903;51.638;7.528;2023-06-22T04:27:57;101151.97;;;19.87;93.68
55010;BME280;40903;51.638;7.528;2023-06-22T04:30:23;101157.97;;;19.88;94.44
55010;BME280;40903;51.638;7.528;2023-06-22T04:32:48;101167.72;;;19.94;94.34
55010;BME280;40903;51.638;7.528;2023-06-22T04:35:23;101169.78;;;19.97;93.93
55010;BME280;40903;51.638;7.528;2023-06-22T04:37:49;101159.16;;;19.99;94.21
55010;BME280;40903;51.638;7.528;2023-06-22T04:40:15;101154.59;;;20.03;94.90
55010;BME280;40903;51.638;7.528;2023-06-22T04:42:41;101148.38;;;20.06;93.99
55010;BME280;40903;51.638;7.528;2023-06-22T04:45:17;101152.41;;;20.09;94.09
55010;BME280;40903;51.638;7.528;2023-06-22T04:47:42;101153.47;;;20.16;94.90
55010;BME280;40903;51.638;7.528;2023-06-22T04:50:11;101154.06;;;20.22;94.64
55010;BME280;40903;51.638;7.528;2023-06-22T04:52:37;101163.09;;;20.31;94.27
55010;BME280;40903;51.638;7.528;2023-06-22T04:55:02;101158.47;;;20.35;94.04
55010;BME280;40903;51.638;7.528;2023-06-22T04:57:29;101155.91;;;20.42;93.90
55010;BME280;40903;51.638;7.528;2023-06-22T04:59:57;101150.50;;;20.45;93.34
55010;BME280;40903;51.638;7.528;2023-06-22T05:02:22;101155.81;;;20.50;92.96
55010;BME280;40903;51.638;7.528;2023-06-22T05:04:53;101150.84;;;20.56;92.27
55010;BME280;40903;51.638;7.528;2023-06-22T05:07:21;101147.88;;;20.61;92.48
55010;BME280;40903;51.638;7.528;2023-06-22T05:09:50;101151.22;;;20.66;92.29
55010;BME280;40903;51.638;7.528;2023-06-22T05:12:16;101164.84;;;20.71;92.13
55010;BME280;40903;51.638;7.528;2023-06-22T05:14:41;101167.25;;;20.73;92.03
55010;BME280;40903;51.638;7.528;2023-06-22T05:17:06;101160.44;;;20.70;92.06
55010;BME280;40903;51.638;7.528;2023-06-22T05:19:39;101164.13;;;20.74;91.83
55010;BME280;40903;51.638;7.528;2023-06-22T05:22:10;101167.03;;;20.78;91.76
55010;BME280;40903;51.638;7.528;2023-06-22T05:24:37;101163.56;;;20.81;91.99
55010;BME280;40903;51.638;7.528;2023-06-22T05:27:02;101166.66;;;20.79;91.80
55010;BME280;40903;51.638;7.528;2023-06-22T05:29:28;101165.19;;;20.82;91.90
55010;BME280;40903;51.638;7.528;2023-06-22T05:31:53;101171.53;;;20.82;91.41
55010;BME280;40903;51.638;7.528;2023-06-22T05:34:19;101176.59;;;20.80;91.62
55010;BME280;40903;51.638;7.528;2023-06-22T05:36:44;101170.13;;;20.76;91.74
55010;BME280;40903;51.638;7.528;2023-06-22T05:39:13;101186.69;;;20.85;92.38
55010;BME280;40903;51.638;7.528;2023-06-22T05:41:39;101188.66;;;20.84;92.12
55010;BME280;40903;51.638;7.528;2023-06-22T05:44:04;101180.81;;;20.86;91.55
55010;BME280;40903;51.638;7.528;2023-06-22T05:46:30;101182.88;;;20.89;90.54
55010;BME280;40903;51.638;7.528;2023-06-22T05:48:55;101185.66;;;21.01;90.93
55010;BME280;40903;51.638;7.528;2023-06-22T05:51:21;101205.28;;;21.08;90.84
55010;BME280;40903;51.638;7.528;2023-06-22T05:53:46;101193.84;;;21.10;89.94
55010;BME280;40903;51.638;7.528;2023-06-22T05:56:15;101192.69;;;21.11;89.34
55010;BME280;40903;51.638;7.528;2023-06-22T05:58:40;101184.94;;;21.16;88.81
55010;BME280;40903;51.638;7.528;2023-06-22T06:01:06;101183.31;;;21.15;88.60
55010;BME280;40903;51.638;7.528;2023-06-22T06:03:31;101187.72;;;21.16;88.19
55010;BME280;40903;51.638;7.528;2023-06-22T06:05:56;101185.25;;;21.27;88.49
55010;BME280;40903;51.638;7.528;2023-06-22T06:08:22;101182.72;;;21.34;88.00
55010;BME280;40903;51.638;7.528;2023-06-22T06:10:47;101188.56;;;21.44;87.89
55010;BME280;40903;51.638;7.528;2023-06-22T06:13:13;101195.47;;;21.50;86.85
55010;BME280;40903;51.638;7.528;2023-06-22T06:15:38;101193.88;;;21.49;84.94
55010;BME280;40903;51.638;7.528;2023-06-22T06:18:04;101192.81;;;21.54;85.41
55010;BME280;40903;51.638;7.528;2023-06-22T06:20:30;101189.44;;;21.60;84.93
55010;BME280;40903;51.638;7.528;2023-06-22T06:22:56;101196.50;;;21.70;84.68
55010;BME280;40903;51.638;7.528;2023-06-22T06:25:22;101185.56;;;21.77;83.91
55010;BME280;40903;51.638;7.528;2023-06-22T06:27:49;101183.28;;;21.79;82.32
55010;BME280;40903;51.638;7.528;2023-06-22T06:30:16;101185.78;;;21.84;81.72
55010;BME280;40903;51.638;7.528;2023-06-22T06:32:43;101189.91;;;21.90;81.83
55010;BME280;40903;51.638;7.528;2023-06-22T06:35:11;101183.53;;;22.01;82.59
55010;BME280;40903;51.638;7.528;2023-06-22T06:37:39;101181.81;;;22.12;83.06
55010;BME280;40903;51.638;7.528;2023-06-22T06:40:06;101177.34;;;22.23;82.92
55010;BME280;40903;51.638;7.528;2023-06-22T06:42:39;101176.19;;;22.24;82.18
55010;BME280;40903;51.638;7.528;2023-06-22T06:45:06;101168.50;;;22.33;84.23
55010;BME280;40903;51.638;7.528;2023-06-22T06:47:31;101169.56;;;22.28;82.90
55010;BME280;40903;51.638;7.528;2023-06-22T06:49:57;101157.72;;;22.31;83.55
55010;BME280;40903;51.638;7.528;2023-06-22T06:52:22;101169.84;;;22.23;81.46
55010;BME280;40903;51.638;7.528;2023-06-22T06:54:48;101161.56;;;22.27;82.36
55010;BME280;40903;51.638;7.528;2023-06-22T06:57:13;101166.13;;;22.19;82.60
55010;BME280;40903;51.638;7.528;2023-06-22T06:59:40;101161.66;;;22.15;81.74
55010;BME280;40903;51.638;7.528;2023-06-22T07:02:05;101169.81;;;22.08;81.60
55010;BME280;40903;51.638;7.528;2023-06-22T07:04:30;101167.75;;;22.05;81.71
55010;BME280;40903;51.638;7.528;2023-06-22T07:06:56;101163.81;;;22.06;82.50
55010;BME280;40903;51.638;7.528;2023-06-22T07:09:21;101160.56;;;22.04;83.74
55010;BME280;40903;51.638;7.528;2023-06-22T07:11:47;101161.66;;;22.15;84.29
55010;BME280;40903;51.638;7.528;2023-06-22T07:14:12;101163.13;;;22.24;83.46
55010;BME280;40903;51.638;7.528;2023-06-22T07:16:37;101166.16;;;22.35;84.23
55010;BME280;40903;51.638;7.528;2023-06-22T07:19:03;101156.41;;;22.41;83.42
55010;BME280;40903;51.638;7.528;2023-06-22T07:21:28;101155.19;;;22.38;82.36
55010;BME280;40903;51.638;7.528;2023-06-22T07:23:54;101158.75;;;22.39;83.10
55010;BME280;40903;51.638;7.528;2023-06-22T07:26:20;101142.97;;;22.43;83.14
55010;BME280;40903;51.638;7.528;2023-06-22T07:28:45;101135.44;;;22.43;82.80
55010;BME280;40903;51.638;7.528;2023-06-22T07:31:11;101131.22;;;22.49;82.78
55010;BME280;40903;51.638;7.528;2023-06-22T07:33:36;101139.94;;;22.48;83.38
55010;BME280;40903;51.638;7.528;2023-06-22T07:36:01;101131.59;;;22.48;83.01
55010;BME280;40903;51.638;7.528;2023-06-22T07:38:32;101131.94;;;22.46;84.25
55010;BME280;40903;51.638;7.528;2023-06-22T07:40:58;101140.38;;;22.50;85.18
55010;BME280;40903;51.638;7.528;2023-06-22T07:43:23;101138.13;;;22.40;84.93
55010;BME280;40903;51.638;7.528;2023-06-22T07:45:49;101132.22;;;22.41;84.66
55010;BME280;40903;51.638;7.528;2023-06-22T07:48:21;101124.88;;;22.49;86.05
55010;BME280;40903;51.638;7.528;2023-06-22T07:50:47;101134.53;;;22.55;85.74
55010;BME280;40903;51.638;7.528;2023-06-22T07:53:13;101127.47;;;22.57;85.88
55010;BME280;40903;51.638;7.528;2023-06-22T07:55:38;101122.69;;;22.58;86.89
55010;BME280;40903;51.638;7.528;2023-06-22T07:58:04;101122.06;;;22.64;86.68
55010;BME280;40903;51.638;7.528;2023-06-22T08:00:29;101118.28;;;22.72;86.21
55010;BME280;40903;51.638;7.528;2023-06-22T08:02:54;101113.50;;;22.73;86.51
55010;BME280;40903;51.638;7.528;2023-06-22T08:05:20;101107.59;;;22.74;85.65
55010;BME280;40903;51.638;7.528;2023-06-22T08:07:46;101104.91;;;22.78;85.78
55010;BME280;40903;51.638;7.528;2023-06-22T08:10:12;101096.41;;;22.90;87.13
55010;BME280;40903;51.638;7.528;2023-06-22T08:12:40;101095.34;;;22.94;86.34
55010;BME280;40903;51.638;7.528;2023-06-22T08:15:06;101098.94;;;22.95;85.62
55010;BME280;40903;51.638;7.528;2023-06-22T08:17:33;101093.59;;;23.05;85.61
55010;BME280;40903;51.638;7.528;2023-06-22T08:19:58;101098.56;;;23.12;86.55
55010;BME280;40903;51.638;7.528;2023-06-22T08:22:23;101093.13;;;23.19;87.12
55010;BME280;40903;51.638;7.528;2023-06-22T08:24:49;101092.25;;;23.34;85.39
55010;BME280;40903;51.638;7.528;2023-06-22T08:27:14;101088.88;;;23.44;87.18
55010;BME280;40903;51.638;7.528;2023-06-22T08:29:42;101084.19;;;23.48;89.04
55010;BME280;40903;51.638;7.528;2023-06-22T08:32:10;101090.25;;;23.53;87.15
55010;BME280;40903;51.638;7.528;2023-06-22T08:34:36;101084.34;;;23.55;89.22
55010;BME280;40903;51.638;7.528;2023-06-22T08:37:01;101084.63;;;23.50;89.62
55010;BME280;40903;51.638;7.528;2023-06-22T08:39:31;101074.94;;;23.63;91.32
55010;BME280;40903;51.638;7.528;2023-06-22T08:41:57;101076.03;;;23.77;90.63
55010;BME280;40903;51.638;7.528;2023-06-22T08:44:22;101073.78;;;23.83;87.46
55010;BME280;40903;51.638;7.528;2023-06-22T08:46:47;101075.81;;;24.08;89.63
55010;BME280;40903;51.638;7.528;2023-06-22T08:49:12;101067.31;;;24.23;85.15
55010;BME280;40903;51.638;7.528;2023-06-22T08:51:38;101063.16;;;24.36;83.38
55010;BME280;40903;51.638;7.528;2023-06-22T08:54:03;101057.44;;;24.78;82.51
55010;BME280;40903;51.638;7.528;2023-06-22T08:56:28;101045.84;;;25.31;83.94
55010;BME280;40903;51.638;7.528;2023-06-22T08:58:54;101047.91;;;25.78;80.30
55010;BME280;40903;51.638;7.528;2023-06-22T09:01:20;101050.34;;;25.83;73.58
55010;BME280;40903;51.638;7.528;2023-06-22T09:03:45;101044.84;;;25.86;74.03
55010;BME280;40903;51.638;7.528;2023-06-22T09:06:22;101040.47;;;25.89;72.69
55010;BME280;40903;51.638;7.528;2023-06-22T09:08:47;101040.94;;;25.94;71.55
55010;BME280;40903;51.638;7.528;2023-06-22T09:11:13;101047.84;;;26.07;73.42
55010;BME280;40903;51.638;7.528;2023-06-22T09:13:38;101037.94;;;26.17;71.84
55010;BME280;40903;51.638;7.528;2023-06-22T09:16:04;101032.44;;;26.27;72.40
55010;BME280;40903;51.638;7.528;2023-06-22T09:18:29;101036.88;;;26.35;70.81
55010;BME280;40903;51.638;7.528;2023-06-22T09:20:55;101030.69;;;26.59;70.88
55010;BME280;40903;51.638;7.528;2023-06-22T09:23:21;101030.84;;;26.87;68.77
55010;BME280;40903;51.638;7.528;2023-06-22T09:25:46;101029.78;;;27.12;68.62
55010;BME280;40903;51.638;7.528;2023-06-22T09:28:13;101022.72;;;27.43;67.54
55010;BME280;40903;51.638;7.528;2023-06-22T09:30:39;101022.75;;;27.57;65.57
55010;BME280;40903;51.638;7.528;2023-06-22T09:33:04;101026.81;;;27.84;65.02
55010;BME280;40903;51.638;7.528;2023-06-22T09:35:32;101031.63;;;27.97;63.64
55010;BME280;40903;51.638;7.528;2023-06-22T09:37:58;101025.22;;;28.11;63.31
55010;BME280;40903;51.638;7.528;2023-06-22T09:40:24;101024.44;;;28.21;61.89
55010;BME280;40903;51.638;7.528;2023-06-22T09:42:49;101014.00;;;28.42;62.17
55010;BME280;40903;51.638;7.528;2023-06-22T09:45:15;101021.63;;;28.45;60.77
55010;BME280;40903;51.638;7.528;2023-06-22T09:47:40;101018.38;;;28.71;63.29
55010;BME280;40903;51.638;7.528;2023-06-22T09:50:07;101013.91;;;28.94;60.58
55010;BME280;40903;51.638;7.528;2023-06-22T09:52:33;101024.59;;;29.27;58.55
55010;BME280;40903;51.638;7.528;2023-06-22T09:54:59;101016.09;;;29.41;56.27
55010;BME280;40903;51.638;7.528;2023-06-22T09:57:24;101008.88;;;29.37;55.49
55010;BME280;40903;51.638;7.528;2023-06-22T09:59:50;100996.38;;;29.52;54.62
55010;BME280;40903;51.638;7.528;2023-06-22T10:02:15;100996.38;;;29.52;54.92
55010;BME280;40903;51.638;7.528;2023-06-22T10:04:41;100991.44;;;29.70;55.16
55010;BME280;40903;51.638;7.528;2023-06-22T10:07:06;100987.00;;;29.72;55.16
55010;BME280;40903;51.638;7.528;2023-06-22T10:09:32;100996.50;;;29.89;53.81
55010;BME280;40903;51.638;7.528;2023-06-22T10:11:57;100993.19;;;30.04;53.96
55010;BME280;40903;51.638;7.528;2023-06-22T10:14:23;100982.00;;;29.97;55.59
55010;BME280;40903;51.638;7.528;2023-06-22T10:16:49;100982.78;;;29.94;54.40
55010;BME280;40903;51.638;7.528;2023-06-22T10:19:15;100973.88;;;30.06;54.92
55010;BME280;40903;51.638;7.528;2023-06-22T10:21:40;100976.66;;;30.13;54.29
55010;BME280;40903;51.638;7.528;2023-06-22T10:24:06;100969.94;;;29.93;55.23
55010;BME280;40903;51.638;7.528;2023-06-22T10:26:35;100974.78;;;29.93;54.76
55010;BME280;40903;51.638;7.528;2023-06-22T10:29:02;100968.44;;;29.85;55.08
55010;BME280;40903;51.638;7.528;2023-06-22T10:31:27;100969.75;;;29.70;53.89
55010;BME280;40903;51.638;7.528;2023-06-22T10:33:53;100963.03;;;29.54;55.23
55010;BME280;40903;51.638;7.528;2023-06-22T10:36:19;100955.84;;;29.49;56.01
55010;BME280;40903;51.638;7.528;2023-06-22T10:38:45;100944.56;;;29.53;57.10
55010;BME280;40903;51.638;7.528;2023-06-22T10:41:12;100940.56;;;29.50;55.67
55010;BME280;40903;51.638;7.528;2023-06-22T10:43:37;100939.78;;;29.50;56.99
55010;BME280;40903;51.638;7.528;2023-06-22T10:46:03;100937.78;;;29.47;56.45
55010;BME280;40903;51.638;7.528;2023-06-22T10:48:28;100927.63;;;29.63;57.03
55010;BME280;40903;51.638;7.528;2023-06-22T10:50:53;100933.97;;;29.71;56.16
55010;BME280;40903;51.638;7.528;2023-06-22T10:53:19;100933.63;;;29.65;56.42
55010;BME280;40903;51.638;7.528;2023-06-22T10:55:45;100925.53;;;29.71;54.66
55010;BME280;40903;51.638;7.528;2023-06-22T10:58:10;100933.47;;;29.83;53.65
55010;BME280;40903;51.638;7.528;2023-06-22T11:00:35;100932.78;;;30.16;52.82
55010;BME280;40903;51.638;7.528;2023-06-22T11:03:01;100929.66;;;30.47;51.64
55010;BME280;40903;51.638;7.528;2023-06-22T11:05:26;100929.72;;;30.40;50.62
55010;BME280;40903;51.638;7.528;2023-06-22T11:07:51;100909.69;;;30.72;54.60
55010;BME280;40903;51.638;7.528;2023-06-22T11:10:17;100916.31;;;30.88;50.66
55010;BME280;40903;51.638;7.528;2023-06-22T11:12:42;100918.66;;;30.93;49.52
55010;BME280;40903;51.638;7.528;2023-06-22T11:15:09;100912.63;;;30.91;51.00
55010;BME280;40903;51.638;7.528;2023-06-22T11:17:34;100918.34;;;30.84;50.32
55010;BME280;40903;51.638;7.528;2023-06-22T11:20:00;100919.31;;;30.74;50.21
55010;BME280;40903;51.638;7.528;2023-06-22T11:22:26;100923.84;;;30.65;51.43
55010;BME280;40903;51.638;7.528;2023-06-22T11:24:51;100928.72;;;30.61;50.97
55010;BME280;40903;51.638;7.528;2023-06-22T11:27:16;100942.97;;;30.43;53.22
55010;BME280;40903;51.638;7.528;2023-06-22T11:29:42;100948.06;;;30.18;52.07
55010;BME280;40903;51.638;7.528;2023-06-22T11:32:07;100958.94;;;30.16;52.67
55010;BME280;40903;51.638;7.528;2023-06-22T11:34:33;100963.50;;;29.96;52.37
55010;BME280;40903;51.638;7.528;2023-06-22T11:36:58;100969.31;;;29.75;52.95
55010;BME280;40903;51.638;7.528;2023-06-22T11:39:24;100969.84;;;29.56;54.69
55010;BME280;40903;51.638;7.528;2023-06-22T11:41:49;100965.06;;;29.46;55.87
55010;BME280;40903;51.638;7.528;2023-06-22T11:44:15;100963.53;;;29.35;55.37
55010;BME280;40903;51.638;7.528;2023-06-22T11:46:40;100956.50;;;28.99;57.64
55010;BME280;40903;51.638;7.528;2023-06-22T11:49:05;100955.78;;;28.77;57.95
55010;BME280;40903;51.638;7.528;2023-06-22T11:51:31;100961.47;;;28.50;61.37
55010;BME280;40903;51.638;7.528;2023-06-22T11:53:57;100967.94;;;27.94;64.01
55010;BME280;40903;51.638;7.528;2023-06-22T11:56:23;100968.69;;;27.53;67.17
55010;BME280;40903;51.638;7.528;2023-06-22T11:58:48;100968.19;;;27.16;71.52
55010;BME280;40903;51.638;7.528;2023-06-22T12:01:13;100970.44;;;26.82;72.22
55010;BME280;40903;51.638;7.528;2023-06-22T12:03:41;100963.56;;;26.62;75.59
55010;BME280;40903;51.638;7.528;2023-06-22T12:06:08;100962.94;;;26.36;78.80
55010;BME280;40903;51.638;7.528;2023-06-22T12:08:33;100956.84;;;26.20;82.25
55010;BME280;40903;51.638;7.528;2023-06-22T12:10:59;100963.94;;;26.04;84.69
55010;BME280;40903;51.638;7.528;2023-06-22T12:13:24;100963.50;;;25.98;87.57
55010;BME280;40903;51.638;7.528;2023-06-22T12:15:49;100970.22;;;25.90;90.34
55010;BME280;40903;51.638;7.528;2023-06-22T12:18:17;100971.25;;;25.75;92.97
55010;BME280;40903;51.638;7.528;2023-06-22T12:20:45;100967.13;;;25.59;94.53
55010;BME280;40903;51.638;7.528;2023-06-22T12:23:10;100976.91;;;25.42;96.47
55010;BME280;40903;51.638;7.528;2023-06-22T12:25:36;100973.13;;;25.24;97.04
55010;BME280;40903;51.638;7.528;2023-06-22T12:28:01;100975.84;;;25.17;99.14
55010;BME280;40903;51.638;7.528;2023-06-22T12:30:26;100972.91;;;25.07;100.00
55010;BME280;40903;51.638;7.528;2023-06-22T12:32:52;100976.38;;;24.97;100.00
55010;BME280;40903;51.638;7.528;2023-06-22T12:35:17;100959.94;;;24.88;100.00
55010;BME280;40903;51.638;7.528;2023-06-22T12:37:43;100944.22;;;24.77;100.00
55010;BME280;40903;51.638;7.528;2023-06-22T12:40:09;100934.06;;;24.62;100.00
55010;BME280;40903;51.638;7.528;2023-06-22T12:42:35;100943.31;;;24.40;100.00
55010;BME280;40903;51.638;7.528;2023-06-22T12:45:00;100936.63;;;24.18;100.00
55010;BME280;40903;51.638;7.528;2023-06-22T12:47:25;100934.97;;;23.88;100.00
55010;BME280;40903;51.638;7.528;2023-06-22T12:49:51;100941.94;;;23.79;100.00
55010;BME280;40903;51.638;7.528;2023-06-22T12:52:16;100930.19;;;23.44;100.00